Airfield :
LOGIN :

Register | Disclaimer

   EN    FR    IT 

 










Legend :    VFR   Marginal VFR   IFR   Intensive IFR   Very Intensive IFR
Visi :
Ceiling :
>= 8 km
>= 3000ft
5 to 8 km
1000 to 3000 ft
1500m to 5 km
500 to 1000 ft
800 to 1500m
200 to 500 ft
< 800m
< 200 ft
Symbols :   Thunderstorms  Fog  Heavy snow  Heavy precipitations  Wind > 20 kt
SIGMETs :     Misc.  Thunderstorms  Icing  Turbulence  Mountain Waves  Volcanic Ashes






- Airport Elevation : 1325 ft
- IATA code : EBU


LFMH - St-Etienne Boutheon

CURRENT METAR :
  • 170330Z AUTO 21003KT 160V290 9999 BKN047 10/04 Q1012 NOSIG

EXPIRED METARs :
  • 170300Z AUTO 19005KT 9999 BKN054 08/03 Q1012 NOSIG
  • 170230Z AUTO 21004KT 9999 BKN050 10/03 Q1012 NOSIG
  • 170200Z AUTO 24005KT 210V270 9999 BKN048 BKN054 11/04 Q1012 NOSIG
  • 170130Z AUTO 22005KT 180V260 9999 BKN050 BKN060 11/03 Q1012 NOSIG
  • 170100Z AUTO VRB03KT 9999 BKN054/// OVC064/// ///TCU 11/03 Q1012 BECMG BKN040

TAF TAF LFMH
Valid from the 17 at 00:00 until the 18 at 00:00 UTC


162300Z 1700/1724 22005KT 9999 BKN040
BECMG 1708/1710 30010KT
TEMPO 1709/1718 -SHRA SCT040TCU
PROB40
TEMPO 1712/1718 VRB15G30KT 3000 SHRA FEW037CB BKN040TCU
BECMG 1720/1722 VRB02KT
ATIS : +33 4 77 36 17 51



MET'MAP, your aeronautical weather chart ! - Copyright ORBIFLY December 2007 - Disclaimer

ORBIFLY MET'MAP TEAM :

Programming & Development : Alexandra Zaïnal
Concept & original design : Baudouin d'Aumeries
Assistance for programming : Marc-Olivier Méhu
Technical & hardware support : Manuel Goepfert

Contact : metmap@orbifly.com




SOURCES & CREDITS :

   NOAA